Terminal Aerodrome Forecast
Issued by NWS Sioux Falls, SD

Home | Current Version | Previous Version | Text Only | Print | Product List | Glossary On
Versions: 1 2 3 4 5 6 7 8 9 10 11 12 13 14 15
338
FTUS43 KFSD 270520
TAFHON
TAF
KHON 270520Z 2706/2806 14005KT P6SM OVC120
      TEMPO 2708/2710 BKN025
     FM271200 17005KT 5SM BR SCT025 BKN120
     FM271400 17007KT P6SM BKN120
     FM271900 19012KT P6SM SCT110
     FM280030 15007KT P6SM OVC045=

USA.gov is the U.S. government's official web portal to all federal, state and local government web resources and services.